Time;durP1;ratioP1;P1;durP2;ratioP2;P2;SDS_P1;SDS_P2;PMS_P1;PMS_P2;Temp;Humidity;BMP_temperature;BMP_pressure;BME280_temperature;BME280_humidity;BME280_pressure;Samples;Min_cycle;Max_cycle;Signal;HPM_P1;HPM_P2
2023/11/09 00:01:15;;;;;;;;;;;;;;;;;;5075509;28;19920;-73
2023/11/09 00:03:41;;;;;;;;;;;;;;;;;;5068605;28;20277;-69
2023/11/09 00:06:06;;;;;;;;;;;;;;;;;;5057434;28;19973;-66
2023/11/09 00:08:31;;;;;;;;;;;;;;;;;;5069348;28;19916;-67
2023/11/09 00:10:57;;;;;;;;;;;;;;;;;;5047897;28;19916;-66
2023/11/09 00:13:22;;;;;;;;;;;;;;;;;;5052243;28;20372;-67
2023/11/09 00:15:47;;;;;;;;;;;;;;;;;;5059324;28;20291;-67
2023/11/09 00:18:21;;;;;;;;;;;;;;;;;;5069704;28;20370;-67
2023/11/09 00:20:48;;;;;;;;;;;;;;;;;;5055863;28;19916;-68
2023/11/09 00:23:13;;;;;;;;;;;;;;;;;;5052401;28;19926;-68
2023/11/09 00:25:38;;;;;;;;;;;;;;;;;;5058631;28;20392;-70
2023/11/09 00:28:04;;;;;;;;;;;;;;;;;;5071092;28;19920;-66
2023/11/09 00:30:29;;;;;;;;;;;;;;;;;;5050279;28;21713;-67
2023/11/09 00:32:55;;;;;;;;;;;;;;;;;;5054549;28;19927;-67
2023/11/09 00:35:20;;;;;;;;;;;;;;;;;;5053013;28;19941;-72
2023/11/09 00:37:46;;;;;;;;;;;;;;;;;;5053872;28;20398;-67
2023/11/09 00:40:14;;;;;;;;;;;;;;;;;;5068664;28;19926;-67
2023/11/09 00:42:39;;;;;;;;;;;;;;;;;;5069082;28;19920;-66
2023/11/09 00:45:04;;;;;;;;;;;;;;;;;;5068383;28;20386;-66
2023/11/09 00:47:30;;;;;;;;;;;;;;;;;;5068598;28;20557;-67
2023/11/09 00:49:55;;;;;;;;;;;;;;;;;;5039893;28;20955;-66
2023/11/09 00:52:20;;;;;;;;;;;;;;;;;;5037690;28;20186;-71
2023/11/09 00:54:46;;;;;;;;;;;;;;;;;;5053784;28;20011;-67
2023/11/09 00:57:11;;;;;;;;;;;;;;;;;;5040926;28;19920;-67
2023/11/09 00:59:43;;;;;;;;;;;;;;;;;;5043360;28;19927;-67
2023/11/09 01:02:08;;;;;;;;;;;;;;;;;;5073295;28;19924;-67
2023/11/09 01:04:35;;;;;;;;;;;;;;;;;;5073598;28;20438;-64
2023/11/09 01:07:00;;;;;;;;;;;;;;;;;;5056335;28;20075;-64
2023/11/09 01:09:25;;;;;;;;;;;;;;;;;;5055495;28;19923;-63
2023/11/09 01:11:51;;;;;;;;;;;;;;;;;;5072778;28;19920;-65
2023/11/09 01:14:20;;;;;;;;;;;;;;;;;;5071666;28;20383;-65
2023/11/09 01:16:45;;;;;;;;;;;;;;;;;;5072222;28;20311;-65
2023/11/09 01:19:13;;;;;;;;;;;;;;;;;;5056404;28;19926;-65
2023/11/09 01:21:38;;;;;;;;;;;;;;;;;;5056238;28;19923;-64
2023/11/09 01:24:06;;;;;;;;;;;;;;;;;;5070615;28;19916;-65
2023/11/09 01:26:31;;;;;;;;;;;;;;;;;;5060239;28;19924;-64
2023/11/09 01:28:56;;;;;;;;;;;;;;;;;;5070433;28;19920;-65
2023/11/09 01:31:22;;;;;;;;;;;;;;;;;;5055127;28;19916;-64
2023/11/09 01:33:47;;;;;;;;;;;;;;;;;;5056596;28;19916;-64
2023/11/09 01:36:15;;;;;;;;;;;;;;;;;;5071207;28;20648;-67
2023/11/09 01:38:42;;;;;;;;;;;;;;;;;;5055417;28;20007;-64
2023/11/09 01:41:08;;;;;;;;;;;;;;;;;;5071417;28;19915;-64
2023/11/09 01:43:36;;;;;;;;;;;;;;;;;;5058086;28;19959;-64
2023/11/09 01:46:01;;;;;;;;;;;;;;;;;;5071455;28;20007;-64
2023/11/09 01:48:26;;;;;;;;;;;;;;;;;;5060951;28;19916;-63
2023/11/09 01:50:52;;;;;;;;;;;;;;;;;;5064218;28;19951;-63
2023/11/09 01:53:20;;;;;;;;;;;;;;;;;;5058208;28;20080;-63
2023/11/09 01:55:48;;;;;;;;;;;;;;;;;;5075244;28;20035;-63
2023/11/09 01:58:16;;;;;;;;;;;;;;;;;;5071556;28;20213;-66
2023/11/09 02:00:41;;;;;;;;;;;;;;;;;;5044522;28;19916;-64
2023/11/09 02:03:09;;;;;;;;;;;;;;;;;;5070929;28;19920;-64
2023/11/09 02:05:37;;;;;;;;;;;;;;;;;;5057503;28;19916;-65
2023/11/09 02:08:05;;;;;;;;;;;;;;;;;;5052128;28;19924;-64
2023/11/09 02:10:30;;;;;;;;;;;;;;;;;;5073770;28;19922;-66
2023/11/09 02:12:56;;;;;;;;;;;;;;;;;;5055400;28;19961;-64
2023/11/09 02:15:21;;;;;;;;;;;;;;;;;;5071803;28;19920;-64
2023/11/09 02:17:46;;;;;;;;;;;;;;;;;;5072457;28;20062;-64
2023/11/09 02:20:13;;;;;;;;;;;;;;;;;;5070640;28;19938;-65
2023/11/09 02:22:38;;;;;;;;;;;;;;;;;;5054563;28;20034;-65
2023/11/09 02:25:04;;;;;;;;;;;;;;;;;;5056804;28;20319;-64
2023/11/09 02:27:29;;;;;;;;;;;;;;;;;;5042241;28;19928;-64
2023/11/09 02:29:54;;;;;;;;;;;;;;;;;;5057265;28;20057;-65
2023/11/09 02:32:20;;;;;;;;;;;;;;;;;;5055111;28;19924;-65
2023/11/09 02:34:45;;;;;;;;;;;;;;;;;;5058969;28;19931;-64
2023/11/09 02:37:11;;;;;;;;;;;;;;;;;;5052378;28;19924;-64
2023/11/09 02:39:36;;;;;;;;;;;;;;;;;;5071189;28;20023;-64
2023/11/09 02:42:02;;;;;;;;;;;;;;;;;;5073444;28;20286;-64
2023/11/09 02:44:27;;;;;;;;;;;;;;;;;;5070383;28;20388;-64
2023/11/09 02:46:53;;;;;;;;;;;;;;;;;;5051554;28;19924;-64
2023/11/09 02:49:18;;;;;;;;;;;;;;;;;;5058478;28;20376;-64
2023/11/09 02:51:43;;;;;;;;;;;;;;;;;;5055728;28;20424;-64
2023/11/09 02:54:09;;;;;;;;;;;;;;;;;;5051122;28;19928;-64
2023/11/09 02:56:37;;;;;;;;;;;;;;;;;;5055843;28;19916;-64
2023/11/09 02:59:02;;;;;;;;;;;;;;;;;;5071452;28;19927;-63
2023/11/09 03:01:31;;;;;;;;;;;;;;;;;;5058174;28;19937;-64
2023/11/09 03:03:59;;;;;;;;;;;;;;;;;;5040706;28;19920;-63
2023/11/09 03:06:24;;;;;;;;;;;;;;;;;;5052847;28;20005;-63
2023/11/09 03:08:49;;;;;;;;;;;;;;;;;;5071799;28;20379;-63
2023/11/09 03:11:16;;;;;;;;;;;;;;;;;;5069425;28;20038;-63
2023/11/09 03:13:42;;;;;;;;;;;;;;;;;;5041908;28;19920;-64
2023/11/09 03:16:07;;;;;;;;;;;;;;;;;;5052941;28;19927;-63
2023/11/09 03:18:33;;;;;;;;;;;;;;;;;;5070964;28;19916;-67
2023/11/09 03:20:59;;;;;;;;;;;;;;;;;;5051595;28;19916;-64
2023/11/09 03:23:26;;;;;;;;;;;;;;;;;;5069598;28;19917;-64
2023/11/09 03:25:52;;;;;;;;;;;;;;;;;;5035908;28;19924;-64
2023/11/09 03:28:17;;;;;;;;;;;;;;;;;;5054305;28;19933;-64
2023/11/09 03:30:42;;;;;;;;;;;;;;;;;;5071908;28;19991;-64
2023/11/09 03:33:08;;;;;;;;;;;;;;;;;;5071683;28;19916;-65
2023/11/09 03:35:33;;;;;;;;;;;;;;;;;;5053782;28;22203;-66
2023/11/09 03:37:58;;;;;;;;;;;;;;;;;;5051096;28;19920;-64
2023/11/09 03:40:24;;;;;;;;;;;;;;;;;;5052994;28;19920;-65
2023/11/09 03:42:49;;;;;;;;;;;;;;;;;;5069399;28;19919;-65
2023/11/09 03:45:14;;;;;;;;;;;;;;;;;;5055707;28;19920;-64
2023/11/09 03:47:40;;;;;;;;;;;;;;;;;;5040313;28;20612;-64
2023/11/09 03:50:08;;;;;;;;;;;;;;;;;;5069649;28;19924;-64
2023/11/09 03:52:33;;;;;;;;;;;;;;;;;;5051445;28;19955;-65
2023/11/09 03:54:59;;;;;;;;;;;;;;;;;;5055046;28;20377;-64
2023/11/09 03:57:24;;;;;;;;;;;;;;;;;;5056679;28;20009;-64
2023/11/09 03:59:49;;;;;;;;;;;;;;;;;;5055049;28;19916;-65
2023/11/09 04:02:15;;;;;;;;;;;;;;;;;;5069414;28;19962;-64
2023/11/09 04:04:40;;;;;;;;;;;;;;;;;;5052143;28;19958;-64
2023/11/09 04:07:05;;;;;;;;;;;;;;;;;;5052629;28;20316;-65
2023/11/09 04:09:31;;;;;;;;;;;;;;;;;;5087724;27;19924;-64
2023/11/09 04:11:56;;;;;;;;;;;;;;;;;;5071122;28;20296;-64
2023/11/09 04:14:21;;;;;;;;;;;;;;;;;;5050649;28;21773;-64
2023/11/09 04:16:47;;;;;;;;;;;;;;;;;;5055457;28;20007;-64
2023/11/09 04:19:12;;;;;;;;;;;;;;;;;;5070158;28;20006;-64
2023/11/09 04:21:40;;;;;;;;;;;;;;;;;;5071089;28;20314;-64
2023/11/09 04:24:06;;;;;;;;;;;;;;;;;;5055965;28;19958;-64
2023/11/09 04:26:32;;;;;;;;;;;;;;;;;;5053816;28;19921;-64
2023/11/09 04:29:00;;;;;;;;;;;;;;;;;;5068214;28;19946;-64
2023/11/09 04:31:26;;;;;;;;;;;;;;;;;;5043521;28;19942;-64
2023/11/09 04:33:53;;;;;;;;;;;;;;;;;;5075264;28;19963;-64
2023/11/09 04:36:18;;;;;;;;;;;;;;;;;;5057479;28;20018;-64
2023/11/09 04:38:46;;;;;;;;;;;;;;;;;;5075599;28;19917;-64
2023/11/09 04:41:16;;;;;;;;;;;;;;;;;;5076080;28;19920;-64
2023/11/09 04:43:42;;;;;;;;;;;;;;;;;;5074367;28;19923;-64
2023/11/09 04:46:11;;;;;;;;;;;;;;;;;;5058719;28;19938;-65
2023/11/09 04:48:44;;;;;;;;;;;;;;;;;;5059785;28;19916;-64
2023/11/09 04:51:09;;;;;;;;;;;;;;;;;;5058661;28;19916;-65
2023/11/09 04:53:41;;;;;;;;;;;;;;;;;;5058933;28;19921;-65
2023/11/09 04:56:19;;;;;;;;;;;;;;;;;;5061093;28;20026;-64
2023/11/09 04:58:47;;;;;;;;;;;;;;;;;;5071853;28;19916;-64
2023/11/09 05:06:49;;;;;;;;;;;;;;;;;;5073261;28;21664;-65
2023/11/09 05:09:18;;;;;;;;;;;;;;;;;;5063009;28;19920;-64
2023/11/09 05:11:43;;;;;;;;;;;;;;;;;;5059578;28;20367;-66
2023/11/09 05:14:09;;;;;;;;;;;;;;;;;;5068919;28;19916;-65
2023/11/09 05:16:34;;;;;;;;;;;;;;;;;;5074432;28;19946;-65
2023/11/09 05:19:00;;;;;;;;;;;;;;;;;;5074496;28;19989;-65
2023/11/09 05:21:25;;;;;;;;;;;;;;;;;;5075677;28;20038;-65
2023/11/09 05:23:50;;;;;;;;;;;;;;;;;;5074398;28;20024;-65
2023/11/09 05:26:18;;;;;;;;;;;;;;;;;;5074524;28;19930;-65
2023/11/09 05:28:45;;;;;;;;;;;;;;;;;;5074540;28;19920;-65
2023/11/09 05:31:10;;;;;;;;;;;;;;;;;;5075389;28;19920;-65
2023/11/09 05:33:37;;;;;;;;;;;;;;;;;;5094588;27;20360;-65
2023/11/09 05:36:07;;;;;;;;;;;;;;;;;;5058909;28;20041;-65
2023/11/09 05:42:03;;;;;;;;;;;;;;;;;;5072725;28;20721;-66
2023/11/09 05:44:29;;;;;;;;;;;;;;;;;;5072350;28;19920;-65
2023/11/09 05:46:54;;;;;;;;;;;;;;;;;;5040980;28;19931;-66
2023/11/09 05:49:20;;;;;;;;;;;;;;;;;;5060923;28;20370;-66
2023/11/09 05:51:48;;;;;;;;;;;;;;;;;;5069242;28;20015;-66
2023/11/09 05:54:13;;;;;;;;;;;;;;;;;;5054969;28;19924;-67
2023/11/09 05:56:40;;;;;;;;;;;;;;;;;;5057171;28;19912;-66
2023/11/09 05:59:12;;;;;;;;;;;;;;;;;;5089303;27;21466;-67
2023/11/09 06:01:39;;;;;;;;;;;;;;;;;;5043799;28;19920;-71
2023/11/09 06:04:10;;;;;;;;;;;;;;;;;;5088407;27;20465;-66
2023/11/09 06:06:35;;;;;;;;;;;;;;;;;;5059054;28;19920;-66
2023/11/09 06:09:05;;;;;;;;;;;;;;;;;;5069779;28;19921;-66
2023/11/09 06:11:34;;;;;;;;;;;;;;;;;;5072328;28;19970;-69
2023/11/09 06:14:03;;;;;;;;;;;;;;;;;;5086953;27;19921;-66
2023/11/09 06:16:30;;;;;;;;;;;;;;;;;;5041979;28;19915;-66
2023/11/09 06:18:56;;;;;;;;;;;;;;;;;;5056321;28;19916;-66
2023/11/09 06:21:21;;;;;;;;;;;;;;;;;;5088959;27;20378;-66
2023/11/09 06:23:47;;;;;;;;;;;;;;;;;;5070101;28;19920;-66
2023/11/09 06:26:13;;;;;;;;;;;;;;;;;;5056883;28;19970;-66
2023/11/09 06:28:38;;;;;;;;;;;;;;;;;;5056521;28;20330;-66
2023/11/09 06:31:06;;;;;;;;;;;;;;;;;;5068826;28;19920;-66
2023/11/09 06:33:33;;;;;;;;;;;;;;;;;;5071583;28;19924;-66
2023/11/09 06:35:59;;;;;;;;;;;;;;;;;;5089129;27;19956;-67
2023/11/09 06:38:24;;;;;;;;;;;;;;;;;;5054190;28;20477;-69
2023/11/09 06:40:52;;;;;;;;;;;;;;;;;;5042486;28;20005;-67
2023/11/09 06:43:18;;;;;;;;;;;;;;;;;;5069253;28;20429;-67
2023/11/09 06:45:43;;;;;;;;;;;;;;;;;;5058197;28;19916;-67
2023/11/09 06:48:09;;;;;;;;;;;;;;;;;;5058180;28;19928;-66
2023/11/09 06:50:34;;;;;;;;;;;;;;;;;;5072243;28;20653;-67
2023/11/09 06:53:00;;;;;;;;;;;;;;;;;;5086484;27;19946;-67
2023/11/09 06:55:28;;;;;;;;;;;;;;;;;;5057701;28;19948;-67
2023/11/09 06:57:54;;;;;;;;;;;;;;;;;;5075291;28;19920;-67
2023/11/09 07:00:21;;;;;;;;;;;;;;;;;;5074645;28;20512;-66
2023/11/09 07:02:47;;;;;;;;;;;;;;;;;;5061655;28;21568;-66
2023/11/09 07:05:13;;;;;;;;;;;;;;;;;;5057407;28;20057;-67
2023/11/09 07:07:38;;;;;;;;;;;;;;;;;;5038922;28;19920;-68
2023/11/09 07:10:07;;;;;;;;;;;;;;;;;;5064051;28;19994;-68
2023/11/09 07:12:32;;;;;;;;;;;;;;;;;;5051797;28;19919;-67
2023/11/09 07:14:58;;;;;;;;;;;;;;;;;;5071574;28;20375;-67
2023/11/09 07:17:23;;;;;;;;;;;;;;;;;;5056818;28;19927;-68
2023/11/09 07:19:49;;;;;;;;;;;;;;;;;;5055553;28;20432;-67
2023/11/09 07:22:14;;;;;;;;;;;;;;;;;;5070046;28;19916;-68
2023/11/09 07:24:40;;;;;;;;;;;;;;;;;;5069059;28;19917;-67
2023/11/09 07:27:07;;;;;;;;;;;;;;;;;;5056097;28;19921;-67
2023/11/09 07:29:32;;;;;;;;;;;;;;;;;;5069476;28;20011;-67
2023/11/09 07:31:58;;;;;;;;;;;;;;;;;;5072130;28;19916;-68
2023/11/09 07:34:23;;;;;;;;;;;;;;;;;;5055394;28;19927;-67
2023/11/09 07:36:49;;;;;;;;;;;;;;;;;;5055720;28;19924;-67
2023/11/09 07:39:14;;;;;;;;;;;;;;;;;;5070613;28;19950;-67
2023/11/09 07:41:39;;;;;;;;;;;;;;;;;;5052635;28;20128;-67
2023/11/09 07:44:05;;;;;;;;;;;;;;;;;;5069072;28;19970;-67
2023/11/09 07:46:33;;;;;;;;;;;;;;;;;;5071377;28;20466;-67
2023/11/09 07:49:00;;;;;;;;;;;;;;;;;;5050832;28;19927;-67
2023/11/09 07:51:25;;;;;;;;;;;;;;;;;;5054154;28;19959;-67
2023/11/09 07:53:51;;;;;;;;;;;;;;;;;;5087652;27;20035;-67
2023/11/09 07:56:16;;;;;;;;;;;;;;;;;;5053336;28;19915;-68
2023/11/09 07:58:43;;;;;;;;;;;;;;;;;;5053276;28;19916;-67
2023/11/09 08:01:10;;;;;;;;;;;;;;;;;;5069316;28;21769;-67
2023/11/09 08:03:36;;;;;;;;;;;;;;;;;;5089433;27;19923;-66
2023/11/09 08:06:02;;;;;;;;;;;;;;;;;;5087430;27;19916;-67
2023/11/09 08:08:28;;;;;;;;;;;;;;;;;;5054840;28;19943;-67
2023/11/09 08:10:53;;;;;;;;;;;;;;;;;;5070733;28;19951;-68
2023/11/09 08:13:21;;;;;;;;;;;;;;;;;;5071528;28;19928;-67
2023/11/09 08:15:47;;;;;;;;;;;;;;;;;;5069505;28;20101;-67
2023/11/09 08:18:14;;;;;;;;;;;;;;;;;;5053183;28;19912;-67
2023/11/09 08:20:40;;;;;;;;;;;;;;;;;;5086478;27;19912;-68
2023/11/09 08:23:08;;;;;;;;;;;;;;;;;;5054633;28;19923;-67
2023/11/09 08:25:33;;;;;;;;;;;;;;;;;;5088372;28;20306;-67
2023/11/09 08:27:59;;;;;;;;;;;;;;;;;;5042269;28;19993;-67
2023/11/09 08:30:27;;;;;;;;;;;;;;;;;;5053373;28;19917;-67
2023/11/09 08:32:52;;;;;;;;;;;;;;;;;;5071844;28;19920;-67
2023/11/09 08:35:18;;;;;;;;;;;;;;;;;;5085961;28;20358;-68
2023/11/09 08:37:43;;;;;;;;;;;;;;;;;;5068054;28;19920;-68
2023/11/09 08:40:16;;;;;;;;;;;;;;;;;;5069548;28;19923;-67
2023/11/09 08:42:42;;;;;;;;;;;;;;;;;;5068675;28;19920;-68
2023/11/09 08:45:10;;;;;;;;;;;;;;;;;;5069776;28;20338;-68
2023/11/09 08:47:36;;;;;;;;;;;;;;;;;;5088392;28;20026;-69
2023/11/09 08:50:02;;;;;;;;;;;;;;;;;;5053361;28;20248;-69
2023/11/09 08:52:28;;;;;;;;;;;;;;;;;;5070320;28;20625;-68
2023/11/09 08:54:56;;;;;;;;;;;;;;;;;;5070670;28;19973;-68
2023/11/09 08:57:21;;;;;;;;;;;;;;;;;;5071230;28;21589;-70
2023/11/09 08:59:47;;;;;;;;;;;;;;;;;;5069400;28;19923;-71
2023/11/09 09:02:12;;;;;;;;;;;;;;;;;;5040274;28;19967;-70
2023/11/09 09:04:38;;;;;;;;;;;;;;;;;;5053180;28;19920;-74
2023/11/09 09:07:03;;;;;;;;;;;;;;;;;;5054010;28;19936;-71
2023/11/09 09:09:29;;;;;;;;;;;;;;;;;;5054258;28;20123;-71
2023/11/09 09:11:55;;;;;;;;;;;;;;;;;;5054201;28;19940;-70
2023/11/09 09:14:24;;;;;;;;;;;;;;;;;;5055420;28;20004;-76
2023/11/09 09:16:51;;;;;;;;;;;;;;;;;;5070570;28;19920;-74
2023/11/09 09:19:20;;;;;;;;;;;;;;;;;;5092364;27;19939;-72
2023/11/09 09:21:49;;;;;;;;;;;;;;;;;;5071838;28;19925;-71
2023/11/09 09:24:14;;;;;;;;;;;;;;;;;;5074431;28;20150;-70
2023/11/09 09:26:40;;;;;;;;;;;;;;;;;;5055485;28;19928;-71
2023/11/09 09:29:06;;;;;;;;;;;;;;;;;;5075018;28;19916;-71
2023/11/09 09:31:31;;;;;;;;;;;;;;;;;;5058799;28;20545;-73
2023/11/09 09:33:57;;;;;;;;;;;;;;;;;;5072680;28;19922;-71
2023/11/09 09:36:25;;;;;;;;;;;;;;;;;;5057330;28;20053;-71
2023/11/09 09:38:51;;;;;;;;;;;;;;;;;;5055608;28;19917;-70
2023/11/09 09:41:17;;;;;;;;;;;;;;;;;;5044084;28;19961;-70
2023/11/09 09:43:42;;;;;;;;;;;;;;;;;;5092805;27;20262;-69
2023/11/09 09:46:08;;;;;;;;;;;;;;;;;;5070873;28;20377;-69
2023/11/09 09:48:33;;;;;;;;;;;;;;;;;;5075563;28;19976;-69
2023/11/09 09:51:00;;;;;;;;;;;;;;;;;;5044351;28;19917;-69
2023/11/09 09:53:26;;;;;;;;;;;;;;;;;;5055536;28;19916;-71
2023/11/09 09:55:53;;;;;;;;;;;;;;;;;;5072474;28;20588;-68
2023/11/09 09:58:18;;;;;;;;;;;;;;;;;;5091398;27;19917;-69
2023/11/09 10:00:45;;;;;;;;;;;;;;;;;;5071548;28;19930;-68
2023/11/09 10:03:13;;;;;;;;;;;;;;;;;;5058361;28;20414;-69
2023/11/09 10:05:41;;;;;;;;;;;;;;;;;;5090247;27;19922;-67
2023/11/09 10:08:07;;;;;;;;;;;;;;;;;;5072492;28;19920;-68
2023/11/09 10:10:36;;;;;;;;;;;;;;;;;;5058592;28;20050;-70
2023/11/09 10:13:01;;;;;;;;;;;;;;;;;;5058507;28;20190;-68
2023/11/09 10:15:29;;;;;;;;;;;;;;;;;;5070767;28;20146;-68
2023/11/09 10:17:54;;;;;;;;;;;;;;;;;;5073211;28;19916;-73
2023/11/09 10:20:22;;;;;;;;;;;;;;;;;;5089280;27;20291;-69
2023/11/09 10:22:47;;;;;;;;;;;;;;;;;;5072853;28;19916;-68
2023/11/09 10:25:15;;;;;;;;;;;;;;;;;;5070089;28;20062;-70
2023/11/09 10:27:42;;;;;;;;;;;;;;;;;;5044108;28;19961;-70
2023/11/09 10:30:07;;;;;;;;;;;;;;;;;;5071332;28;19919;-73
2023/11/09 10:32:35;;;;;;;;;;;;;;;;;;5091846;27;20359;-68
2023/11/09 10:35:01;;;;;;;;;;;;;;;;;;5067726;28;20012;-71
2023/11/09 10:37:29;;;;;;;;;;;;;;;;;;5074204;28;20467;-70
2023/11/09 10:39:54;;;;;;;;;;;;;;;;;;5059488;28;20011;-68
2023/11/09 10:42:24;;;;;;;;;;;;;;;;;;5056833;28;19922;-68
2023/11/09 10:44:50;;;;;;;;;;;;;;;;;;5076730;28;19920;-69
2023/11/09 10:47:15;;;;;;;;;;;;;;;;;;5047152;28;19920;-68
2023/11/09 10:49:43;;;;;;;;;;;;;;;;;;5054073;28;19927;-69
2023/11/09 10:52:09;;;;;;;;;;;;;;;;;;5055239;28;20098;-70
2023/11/09 10:54:34;;;;;;;;;;;;;;;;;;5071875;28;19938;-69
2023/11/09 10:57:02;;;;;;;;;;;;;;;;;;5055359;28;19920;-68
2023/11/09 10:59:29;;;;;;;;;;;;;;;;;;5054686;28;19920;-68
2023/11/09 11:01:57;;;;;;;;;;;;;;;;;;5056561;28;20042;-68
2023/11/09 11:04:25;;;;;;;;;;;;;;;;;;5089308;27;20529;-69
2023/11/09 11:06:50;;;;;;;;;;;;;;;;;;5056426;28;19923;-70
2023/11/09 11:09:19;;;;;;;;;;;;;;;;;;5070248;28;20279;-70
2023/11/09 11:11:47;;;;;;;;;;;;;;;;;;5088912;27;19945;-69
2023/11/09 11:14:12;;;;;;;;;;;;;;;;;;5043331;28;20383;-72
2023/11/09 11:16:38;;;;;;;;;;;;;;;;;;5070320;28;19916;-73
2023/11/09 11:19:06;;;;;;;;;;;;;;;;;;5053705;28;19916;-71
2023/11/09 11:21:35;;;;;;;;;;;;;;;;;;5071121;28;19920;-70
2023/11/09 11:24:04;;;;;;;;;;;;;;;;;;5054666;28;19920;-70
2023/11/09 11:26:32;;;;;;;;;;;;;;;;;;5071619;28;19970;-70
2023/11/09 11:29:00;;;;;;;;;;;;;;;;;;5055774;28;19915;-70
2023/11/09 11:31:29;;;;;;;;;;;;;;;;;;5088430;27;19916;-71
2023/11/09 11:33:56;;;;;;;;;;;;;;;;;;5056663;28;19920;-70
2023/11/09 11:36:24;;;;;;;;;;;;;;;;;;5054084;28;20273;-73
2023/11/09 11:38:49;;;;;;;;;;;;;;;;;;5053590;28;19931;-72
2023/11/09 11:41:16;;;;;;;;;;;;;;;;;;5070601;28;19920;-72
2023/11/09 11:43:42;;;;;;;;;;;;;;;;;;5051956;28;19965;-74
2023/11/09 11:46:11;;;;;;;;;;;;;;;;;;5072277;28;19916;-72
2023/11/09 11:48:36;;;;;;;;;;;;;;;;;;5069332;28;19928;-71
2023/11/09 11:51:06;;;;;;;;;;;;;;;;;;5068694;28;19920;-72
2023/11/09 11:53:31;;;;;;;;;;;;;;;;;;5088743;27;19916;-72
2023/11/09 11:55:57;;;;;;;;;;;;;;;;;;5069389;28;20441;-73
2023/11/09 11:58:27;;;;;;;;;;;;;;;;;;5063025;28;19916;-71
2023/11/09 12:00:55;;;;;;;;;;;;;;;;;;5055604;28;19928;-72
2023/11/09 12:03:21;;;;;;;;;;;;;;;;;;5052147;28;19920;-72
2023/11/09 12:05:49;;;;;;;;;;;;;;;;;;5057775;28;19920;-72
2023/11/09 12:08:15;;;;;;;;;;;;;;;;;;5052413;28;20311;-74
2023/11/09 12:10:40;;;;;;;;;;;;;;;;;;5073581;28;19942;-74
2023/11/09 12:13:05;;;;;;;;;;;;;;;;;;5088654;27;19916;-72
2023/11/09 12:15:31;;;;;;;;;;;;;;;;;;5069585;28;20728;-72
2023/11/09 12:17:56;;;;;;;;;;;;;;;;;;5071767;28;19954;-72
2023/11/09 12:20:23;;;;;;;;;;;;;;;;;;5055557;28;19920;-72
2023/11/09 12:22:49;;;;;;;;;;;;;;;;;;5052739;28;19924;-72
2023/11/09 12:25:16;;;;;;;;;;;;;;;;;;5050916;28;19920;-74
2023/11/09 12:27:43;;;;;;;;;;;;;;;;;;5071292;28;19938;-72
2023/11/09 12:30:09;;;;;;;;;;;;;;;;;;5064851;28;19921;-74
2023/11/09 12:32:34;;;;;;;;;;;;;;;;;;5054061;28;19993;-74
2023/11/09 12:35:03;;;;;;;;;;;;;;;;;;5069410;28;19920;-72
2023/11/09 12:37:36;;;;;;;;;;;;;;;;;;5069581;28;19924;-73
2023/11/09 12:40:01;;;;;;;;;;;;;;;;;;5052905;28;20011;-73
2023/11/09 12:42:26;;;;;;;;;;;;;;;;;;5069090;28;19972;-72
2023/11/09 12:44:52;;;;;;;;;;;;;;;;;;5057968;28;21081;-72
2023/11/09 12:47:20;;;;;;;;;;;;;;;;;;5056430;28;20084;-73
2023/11/09 12:49:52;;;;;;;;;;;;;;;;;;5053937;28;19916;-73
2023/11/09 12:52:18;;;;;;;;;;;;;;;;;;5041827;28;20009;-72
2023/11/09 12:54:45;;;;;;;;;;;;;;;;;;5075930;28;19916;-74
2023/11/09 12:57:11;;;;;;;;;;;;;;;;;;5073745;28;19920;-72
2023/11/09 12:59:41;;;;;;;;;;;;;;;;;;5072721;28;20720;-72
2023/11/09 13:02:14;;;;;;;;;;;;;;;;;;5071807;28;19916;-72
2023/11/09 13:04:45;;;;;;;;;;;;;;;;;;5062809;28;20489;-73
2023/11/09 13:07:12;;;;;;;;;;;;;;;;;;5057712;28;19927;-72
2023/11/09 13:09:41;;;;;;;;;;;;;;;;;;5075522;28;20008;-73
2023/11/09 13:15:10;;;;;;;;;;;;;;;;;;5058184;28;19963;-72
2023/11/09 13:17:48;;;;;;;;;;;;;;;;;;5059455;28;19924;-73
2023/11/09 13:20:19;;;;;;;;;;;;;;;;;;5073366;28;19924;-70
2023/11/09 13:22:44;;;;;;;;;;;;;;;;;;5059179;28;20364;-72
2023/11/09 13:25:10;;;;;;;;;;;;;;;;;;5057316;28;20027;-73
2023/11/09 13:27:37;;;;;;;;;;;;;;;;;;5072891;28;19920;-73
2023/11/09 13:30:03;;;;;;;;;;;;;;;;;;5072985;28;19969;-74
2023/11/09 13:32:28;;;;;;;;;;;;;;;;;;5090488;27;20658;-72
2023/11/09 13:37:39;;;;;;;;;;;;;;;;;;5057137;28;19920;-74
2023/11/09 13:42:45;;;;;;;;;;;;;;;;;;5060233;28;20038;-72
2023/11/09 13:48:03;;;;;;;;;;;;;;;;;;5071686;28;19928;-72
2023/11/09 13:50:30;;;;;;;;;;;;;;;;;;5062841;28;20419;-74
2023/11/09 13:52:56;;;;;;;;;;;;;;;;;;5059395;28;20375;-73
2023/11/09 13:58:15;;;;;;;;;;;;;;;;;;5055455;28;19927;-73
2023/11/09 14:00:40;;;;;;;;;;;;;;;;;;5045007;28;19916;-73
2023/11/09 14:03:15;;;;;;;;;;;;;;;;;;5054596;28;19939;-73
2023/11/09 14:05:41;;;;;;;;;;;;;;;;;;5075183;28;19927;-74
2023/11/09 14:08:15;;;;;;;;;;;;;;;;;;5056444;28;20398;-73
2023/11/09 14:10:40;;;;;;;;;;;;;;;;;;5091004;27;20237;-73
2023/11/09 14:13:12;;;;;;;;;;;;;;;;;;5060479;28;19932;-72
2023/11/09 14:15:49;;;;;;;;;;;;;;;;;;5055784;28;19920;-73
2023/11/09 14:20:52;;;;;;;;;;;;;;;;;;5056444;28;19926;-74
2023/11/09 14:23:18;;;;;;;;;;;;;;;;;;5060487;28;20010;-72
2023/11/09 14:25:43;;;;;;;;;;;;;;;;;;5071891;28;19913;-72
2023/11/09 14:28:13;;;;;;;;;;;;;;;;;;5070752;28;19920;-70
2023/11/09 14:30:44;;;;;;;;;;;;;;;;;;5073298;28;19916;-74
2023/11/09 14:33:10;;;;;;;;;;;;;;;;;;5056324;28;20348;-73
2023/11/09 14:35:36;;;;;;;;;;;;;;;;;;5090236;27;19922;-73
2023/11/09 14:38:04;;;;;;;;;;;;;;;;;;5055010;28;19935;-73
2023/11/09 14:40:30;;;;;;;;;;;;;;;;;;5090643;27;19917;-72
2023/11/09 14:42:56;;;;;;;;;;;;;;;;;;5070587;28;19917;-72
2023/11/09 14:45:26;;;;;;;;;;;;;;;;;;5058287;28;20354;-73
2023/11/09 14:47:51;;;;;;;;;;;;;;;;;;5052888;28;19987;-71
2023/11/09 14:50:20;;;;;;;;;;;;;;;;;;5055940;28;20838;-72
2023/11/09 14:53:03;;;;;;;;;;;;;;;;;;5055721;28;20351;-72
2023/11/09 14:55:30;;;;;;;;;;;;;;;;;;5067589;28;19916;-72
2023/11/09 14:57:57;;;;;;;;;;;;;;;;;;5089848;27;19917;-72
2023/11/09 15:00:23;;;;;;;;;;;;;;;;;;5059646;28;20011;-74
2023/11/09 15:02:48;;;;;;;;;;;;;;;;;;5070839;28;19931;-71
2023/11/09 15:05:22;;;;;;;;;;;;;;;;;;5060763;28;20421;-72
2023/11/09 15:07:48;;;;;;;;;;;;;;;;;;5055307;28;19920;-72
2023/11/09 15:10:16;;;;;;;;;;;;;;;;;;5071130;28;19916;-72
2023/11/09 15:12:42;;;;;;;;;;;;;;;;;;5043237;28;20529;-72
2023/11/09 15:15:08;;;;;;;;;;;;;;;;;;5054674;28;20123;-73
2023/11/09 15:17:33;;;;;;;;;;;;;;;;;;5054367;28;19941;-72
2023/11/09 15:19:59;;;;;;;;;;;;;;;;;;5057935;28;19916;-71
2023/11/09 15:22:26;;;;;;;;;;;;;;;;;;5042118;28;20017;-72
2023/11/09 15:24:51;;;;;;;;;;;;;;;;;;5041782;28;19912;-72
2023/11/09 15:27:18;;;;;;;;;;;;;;;;;;5071433;28;21553;-72
2023/11/09 15:29:44;;;;;;;;;;;;;;;;;;5040770;28;20532;-72
2023/11/09 15:32:14;;;;;;;;;;;;;;;;;;5060273;28;20007;-74
2023/11/09 15:34:42;;;;;;;;;;;;;;;;;;5056059;28;19916;-72
2023/11/09 15:37:08;;;;;;;;;;;;;;;;;;5059253;28;21997;-74
2023/11/09 15:39:33;;;;;;;;;;;;;;;;;;5069627;28;19920;-74
2023/11/09 15:41:59;;;;;;;;;;;;;;;;;;5088845;27;19916;-74
2023/11/09 15:44:27;;;;;;;;;;;;;;;;;;5075333;27;19932;-73
2023/11/09 15:46:55;;;;;;;;;;;;;;;;;;5056493;28;19977;-73
2023/11/09 15:49:20;;;;;;;;;;;;;;;;;;5054295;28;20529;-73
2023/11/09 15:51:46;;;;;;;;;;;;;;;;;;5071044;28;19927;-73
2023/11/09 15:54:12;;;;;;;;;;;;;;;;;;5073086;28;19923;-72
2023/11/09 15:56:39;;;;;;;;;;;;;;;;;;5072800;28;20301;-72
2023/11/09 15:59:04;;;;;;;;;;;;;;;;;;5041342;28;19924;-73
2023/11/09 16:01:30;;;;;;;;;;;;;;;;;;5046315;28;20601;-71
2023/11/09 16:03:56;;;;;;;;;;;;;;;;;;5056588;28;20396;-72
2023/11/09 16:06:22;;;;;;;;;;;;;;;;;;5087632;27;19916;-73
2023/11/09 16:08:49;;;;;;;;;;;;;;;;;;5050792;28;19927;-73
2023/11/09 16:11:17;;;;;;;;;;;;;;;;;;5053928;28;19916;-73
2023/11/09 16:13:42;;;;;;;;;;;;;;;;;;5086783;27;19927;-72
2023/11/09 16:16:10;;;;;;;;;;;;;;;;;;5062599;28;19920;-71
2023/11/09 16:18:36;;;;;;;;;;;;;;;;;;5067603;28;20057;-73
2023/11/09 16:21:01;;;;;;;;;;;;;;;;;;5071469;28;19916;-71
2023/11/09 16:23:31;;;;;;;;;;;;;;;;;;5051055;28;19922;-73
2023/11/09 16:25:56;;;;;;;;;;;;;;;;;;5071939;28;19912;-75
2023/11/09 16:28:22;;;;;;;;;;;;;;;;;;5055254;28;19931;-74
2023/11/09 16:30:48;;;;;;;;;;;;;;;;;;5052352;28;19912;-74
2023/11/09 16:33:13;;;;;;;;;;;;;;;;;;5068912;28;19916;-75
2023/11/09 16:35:38;;;;;;;;;;;;;;;;;;5071508;28;19912;-74
2023/11/09 16:38:04;;;;;;;;;;;;;;;;;;5034923;28;20350;-73
2023/11/09 16:40:29;;;;;;;;;;;;;;;;;;5047472;28;19916;-72
2023/11/09 16:42:54;;;;;;;;;;;;;;;;;;5049338;28;19916;-73
2023/11/09 16:45:23;;;;;;;;;;;;;;;;;;5063588;28;19916;-72
2023/11/09 16:47:52;;;;;;;;;;;;;;;;;;5049389;28;19931;-77
2023/11/09 16:50:17;;;;;;;;;;;;;;;;;;5046824;28;19916;-74
2023/11/09 16:52:42;;;;;;;;;;;;;;;;;;5047754;28;19959;-73
2023/11/09 16:55:12;;;;;;;;;;;;;;;;;;5048709;28;19916;-73
2023/11/09 16:57:46;;;;;;;;;;;;;;;;;;5047625;28;19917;-72
2023/11/09 17:00:14;;;;;;;;;;;;;;;;;;5048360;28;20532;-73
2023/11/09 17:02:42;;;;;;;;;;;;;;;;;;5047656;28;20604;-74
2023/11/09 17:05:10;;;;;;;;;;;;;;;;;;5047363;28;19927;-74
2023/11/09 17:07:36;;;;;;;;;;;;;;;;;;5063328;28;19924;-74